Hebgen Lake, Montana
Current Conditions -  °F | °C
As of 3:35 AM on Friday 24 Oct 2014 (Local Time) from KWYS Reporting Station
Broken Clouds Broken Clouds  
Wind Chill: 41°   Ceiling: 11000
Heat Index: 45°   Visibility: 10mi
Dew Point: 32°   Wind: 7mph
Humidity: 61%   Direction: 240°WSW
Pressure: 30.13"   Gusts: 21mph
Location:  44.68°N, 111.12°W
Report Text: KWYS 240935Z AUTO 24006G18KT 210V270 10SM FEW029 SCT060 BKN110 07/00 A3013 RMK AO2
Loading
Personal Weather Stations






























Interactive Weather Map
Tropical Storm Tracking
New forecast layout! Learn more

10-Day Weather Forecast

Advertisements
Track Severe Weather on mobile